Dublin, CA (94568)

2:26 AM PST on February 12, 2016 (GMT -0800)
Echo Park | | Change Station
CLOSE
Current Station
Personal Weather Station
Location: Dublin, CA
Elevation: 335 ft
Nearby Weather Stations

Elev 335 ft 37.71 °N, 121.93 °W | Updated 33 seconds ago

Partly Cloudy
Partly Cloudy
45.9 °F
Feels Like 46 °F
N
0.0
Wind Variable Wind from NW

Today
High -- | Low -- °F
--% Chance of Precip.
Yesterday
High -- | Low -- °F
Precip. -- in
Pressure 30.19 in
Visibility 7.0 miles
Clouds Clear
Windchill 46 °F
Dew Point 46 °F
Humidity 99%
Rainfall 0.00 in
Snow Depth Not available.
7:01 AM 5:43 PM
Waxing Crescent, 19% visible
METAR KLVK 120953Z AUTO 00000KT 7SM CLR 09/08 A3019 RMK AO2 SLP224 T00940078
Pressure 30.19 in
Visibility 7.0 miles
Clouds Clear
Windchill 46 °F
Dew Point 46 °F
Humidity 99%
Rainfall 0.00 in
Snow Depth Not available.
7:01 AM 5:43 PM
Waxing Crescent, 19% visible
METAR KLVK 120953Z AUTO 00000KT 7SM CLR 09/08 A3019 RMK AO2 SLP224 T00940078

10-Day Weather Forecast

Almanac

Astronomy

Feb. 12, 2016 Rise Set
Actual Time
Civil Twilight
Nautical Twilight
Astronomical Twilight
Moon
Length of Visible Light
Length of Day
Tomorrow will be .
, % of the Moon is Illuminated

Today's Extremes

State Highs State Lows

Community

WunderPhotos

Upload Photos

1,892,289 photos uploaded!

WunderBlog® & News

Nearby

Air Quality

  Air Quality AQ Index Pollutant
Not available.

Snow Depth

Station Depth Elevation

Earthquake Activity

City Distance Mag. Time & Date
Minimum magnitude displayed is 2.5.

Coastal Water Temperatures

Place Temperature

Stations

Nearby Weather Stations

Station Location Temp. Windchill Dew Point Humidity Wind Precip. Elev Updated Type
                   

Watches & Warnings

There are currently no watches in effect.